sensor_id;sensor_type;location;lat;lon;timestamp;pressure;altitude;pressure_sealevel;temperature;humidity
61128;BME280;47013;42.664;23.242;2023-06-14T00:00:45;93742.44;;;16.42;100.00
61128;BME280;47013;42.664;23.242;2023-06-14T00:03:11;93748.53;;;16.46;100.00
61128;BME280;47013;42.664;23.242;2023-06-14T00:05:39;93734.72;;;16.49;100.00
61128;BME280;47013;42.664;23.242;2023-06-14T00:08:08;93733.81;;;16.52;100.00
61128;BME280;47013;42.664;23.242;2023-06-14T00:10:34;93734.16;;;16.55;100.00
61128;BME280;47013;42.664;23.242;2023-06-14T00:13:00;93731.41;;;16.55;100.00
61128;BME280;47013;42.664;23.242;2023-06-14T00:15:26;93728.22;;;16.56;100.00
61128;BME280;47013;42.664;23.242;2023-06-14T00:17:51;93727.00;;;16.57;100.00
61128;BME280;47013;42.664;23.242;2023-06-14T00:20:16;93730.06;;;16.59;100.00
61128;BME280;47013;42.664;23.242;2023-06-14T00:22:42;93727.31;;;16.59;100.00
61128;BME280;47013;42.664;23.242;2023-06-14T00:25:07;93728.09;;;16.60;100.00
61128;BME280;47013;42.664;23.242;2023-06-14T00:27:32;93735.84;;;16.61;100.00
61128;BME280;47013;42.664;23.242;2023-06-14T00:29:58;93726.72;;;16.64;100.00
61128;BME280;47013;42.664;23.242;2023-06-14T00:32:23;93730.22;;;16.65;100.00
61128;BME280;47013;42.664;23.242;2023-06-14T00:34:50;93729.00;;;16.66;100.00
61128;BME280;47013;42.664;23.242;2023-06-14T00:37:16;93724.72;;;16.56;100.00
61128;BME280;47013;42.664;23.242;2023-06-14T00:39:55;93717.38;;;16.43;100.00
61128;BME280;47013;42.664;23.242;2023-06-14T00:42:27;93716.94;;;16.23;100.00
61128;BME280;47013;42.664;23.242;2023-06-14T00:44:52;93713.88;;;15.99;100.00
61128;BME280;47013;42.664;23.242;2023-06-14T00:47:18;93715.41;;;16.00;100.00
61128;BME280;47013;42.664;23.242;2023-06-14T00:49:45;93713.63;;;16.06;100.00
61128;BME280;47013;42.664;23.242;2023-06-14T00:52:10;93715.22;;;16.16;100.00
61128;BME280;47013;42.664;23.242;2023-06-14T00:54:37;93715.72;;;16.24;100.00
61128;BME280;47013;42.664;23.242;2023-06-14T00:57:03;93715.91;;;16.30;100.00
61128;BME280;47013;42.664;23.242;2023-06-14T00:59:28;93711.53;;;16.32;100.00
61128;BME280;47013;42.664;23.242;2023-06-14T01:01:53;93714.88;;;16.36;100.00
61128;BME280;47013;42.664;23.242;2023-06-14T01:04:19;93703.03;;;16.39;100.00
61128;BME280;47013;42.664;23.242;2023-06-14T01:06:50;93713.88;;;16.43;100.00
61128;BME280;47013;42.664;23.242;2023-06-14T01:09:27;93704.75;;;16.46;100.00
61128;BME280;47013;42.664;23.242;2023-06-14T01:11:59;93710.41;;;16.51;100.00
61128;BME280;47013;42.664;23.242;2023-06-14T01:14:25;93706.41;;;16.43;100.00
61128;BME280;47013;42.664;23.242;2023-06-14T01:16:55;93716.09;;;16.35;100.00
61128;BME280;47013;42.664;23.242;2023-06-14T01:19:22;93708.66;;;16.36;100.00
61128;BME280;47013;42.664;23.242;2023-06-14T01:21:50;93705.00;;;16.39;100.00
61128;BME280;47013;42.664;23.242;2023-06-14T01:24:16;93709.53;;;16.33;100.00
61128;BME280;47013;42.664;23.242;2023-06-14T01:26:41;93704.69;;;16.37;100.00
61128;BME280;47013;42.664;23.242;2023-06-14T01:29:10;93698.00;;;16.38;100.00
61128;BME280;47013;42.664;23.242;2023-06-14T01:31:36;93701.06;;;16.40;100.00
61128;BME280;47013;42.664;23.242;2023-06-14T01:34:06;93695.03;;;16.45;100.00
61128;BME280;47013;42.664;23.242;2023-06-14T01:36:31;93708.13;;;16.50;100.00
61128;BME280;47013;42.664;23.242;2023-06-14T01:38:57;93703.28;;;16.54;100.00
61128;BME280;47013;42.664;23.242;2023-06-14T01:41:24;93709.91;;;16.44;100.00
61128;BME280;47013;42.664;23.242;2023-06-14T01:43:50;93710.53;;;16.48;100.00
61128;BME280;47013;42.664;23.242;2023-06-14T01:46:16;93709.19;;;16.52;100.00
61128;BME280;47013;42.664;23.242;2023-06-14T01:48:42;93704.03;;;16.55;100.00
61128;BME280;47013;42.664;23.242;2023-06-14T01:51:07;93712.34;;;16.42;100.00
61128;BME280;47013;42.664;23.242;2023-06-14T01:53:32;93709.16;;;16.43;100.00
61128;BME280;47013;42.664;23.242;2023-06-14T01:55:58;93715.25;;;16.47;100.00
61128;BME280;47013;42.664;23.242;2023-06-14T01:58:23;93721.34;;;16.51;100.00
61128;BME280;47013;42.664;23.242;2023-06-14T02:00:49;93721.66;;;16.53;100.00
61128;BME280;47013;42.664;23.242;2023-06-14T02:03:14;93724.72;;;16.56;100.00
61128;BME280;47013;42.664;23.242;2023-06-14T02:05:40;93722.31;;;16.58;100.00
61128;BME280;47013;42.664;23.242;2023-06-14T02:08:06;93721.09;;;16.59;100.00
61128;BME280;47013;42.664;23.242;2023-06-14T02:10:31;93730.06;;;16.59;100.00
61128;BME280;47013;42.664;23.242;2023-06-14T02:12:56;93736.28;;;16.60;100.00
61128;BME280;47013;42.664;23.242;2023-06-14T02:15:22;93734.63;;;16.62;100.00
61128;BME280;47013;42.664;23.242;2023-06-14T02:17:48;93739.66;;;16.64;100.00
61128;BME280;47013;42.664;23.242;2023-06-14T02:20:14;93740.41;;;16.64;100.00
61128;BME280;47013;42.664;23.242;2023-06-14T02:22:40;93744.25;;;16.67;100.00
61128;BME280;47013;42.664;23.242;2023-06-14T02:25:05;93741.53;;;16.67;100.00
61128;BME280;47013;42.664;23.242;2023-06-14T02:27:31;93748.09;;;16.69;100.00
61128;BME280;47013;42.664;23.242;2023-06-14T02:29:56;93743.84;;;16.68;100.00
61128;BME280;47013;42.664;23.242;2023-06-14T02:32:22;93738.78;;;16.67;100.00
61128;BME280;47013;42.664;23.242;2023-06-14T02:34:47;93744.25;;;16.67;100.00
61128;BME280;47013;42.664;23.242;2023-06-14T02:37:15;93732.97;;;16.65;100.00
61128;BME280;47013;42.664;23.242;2023-06-14T02:39:40;93742.38;;;16.64;100.00
61128;BME280;47013;42.664;23.242;2023-06-14T02:42:05;93742.69;;;16.66;100.00
61128;BME280;47013;42.664;23.242;2023-06-14T02:44:31;93738.00;;;16.66;100.00
61128;BME280;47013;42.664;23.242;2023-06-14T02:46:57;93741.53;;;16.67;100.00
61128;BME280;47013;42.664;23.242;2023-06-14T02:49:23;93739.56;;;16.67;100.00
61128;BME280;47013;42.664;23.242;2023-06-14T02:51:49;93733.31;;;16.67;100.00
61128;BME280;47013;42.664;23.242;2023-06-14T02:54:14;93734.09;;;16.67;100.00
61128;BME280;47013;42.664;23.242;2023-06-14T02:56:40;93730.16;;;16.68;100.00
61128;BME280;47013;42.664;23.242;2023-06-14T02:59:06;93739.13;;;16.69;100.00
61128;BME280;47013;42.664;23.242;2023-06-14T03:01:32;93737.91;;;16.70;100.00
61128;BME280;47013;42.664;23.242;2023-06-14T03:04:03;93738.97;;;16.72;100.00
61128;BME280;47013;42.664;23.242;2023-06-14T03:06:31;93742.47;;;16.73;100.00
61128;BME280;47013;42.664;23.242;2023-06-14T03:08:58;93739.75;;;16.73;100.00
61128;BME280;47013;42.664;23.242;2023-06-14T03:11:29;93748.72;;;16.73;100.00
61128;BME280;47013;42.664;23.242;2023-06-14T03:14:03;93758.44;;;16.74;100.00
61128;BME280;47013;42.664;23.242;2023-06-14T03:16:29;93758.91;;;16.73;100.00
61128;BME280;47013;42.664;23.242;2023-06-14T03:18:55;93757.69;;;16.74;100.00
61128;BME280;47013;42.664;23.242;2023-06-14T03:21:20;93757.69;;;16.74;100.00
61128;BME280;47013;42.664;23.242;2023-06-14T03:23:46;93756.94;;;16.73;100.00
61128;BME280;47013;42.664;23.242;2023-06-14T03:26:11;93760.13;;;16.72;100.00
61128;BME280;47013;42.664;23.242;2023-06-14T03:28:43;93758.59;;;16.71;100.00
61128;BME280;47013;42.664;23.242;2023-06-14T03:33:46;93767.56;;;16.71;100.00
61128;BME280;47013;42.664;23.242;2023-06-14T03:36:11;93764.38;;;16.73;100.00
61128;BME280;47013;42.664;23.242;2023-06-14T03:38:36;93765.91;;;16.74;100.00
61128;BME280;47013;42.664;23.242;2023-06-14T03:41:02;93761.50;;;16.76;100.00
61128;BME280;47013;42.664;23.242;2023-06-14T03:43:27;93761.81;;;16.78;100.00
61128;BME280;47013;42.664;23.242;2023-06-14T03:45:52;93766.53;;;16.78;100.00
61128;BME280;47013;42.664;23.242;2023-06-14T03:48:18;93768.81;;;16.79;100.00
61128;BME280;47013;42.664;23.242;2023-06-14T03:50:43;93756.66;;;16.80;100.00
61128;BME280;47013;42.664;23.242;2023-06-14T03:53:09;93764.44;;;16.82;100.00
61128;BME280;47013;42.664;23.242;2023-06-14T03:55:34;93763.22;;;16.83;100.00
61128;BME280;47013;42.664;23.242;2023-06-14T03:58:00;93770.66;;;16.83;100.00
61128;BME280;47013;42.664;23.242;2023-06-14T04:00:25;93772.94;;;16.84;100.00
61128;BME280;47013;42.664;23.242;2023-06-14T04:02:51;93772.94;;;16.84;100.00
61128;BME280;47013;42.664;23.242;2023-06-14T04:05:16;93772.19;;;16.84;100.00
61128;BME280;47013;42.664;23.242;2023-06-14T04:07:44;93773.84;;;16.81;100.00
61128;BME280;47013;42.664;23.242;2023-06-14T04:10:13;93773.22;;;16.77;100.00
61128;BME280;47013;42.664;23.242;2023-06-14T04:12:39;93769.72;;;16.76;100.00
61128;BME280;47013;42.664;23.242;2023-06-14T04:15:05;93772.00;;;16.78;100.00
61128;BME280;47013;42.664;23.242;2023-06-14T04:17:37;93773.41;;;16.61;100.00
61128;BME280;47013;42.664;23.242;2023-06-14T04:20:02;93761.25;;;16.62;100.00
61128;BME280;47013;42.664;23.242;2023-06-14T04:22:29;93765.41;;;16.44;100.00
61128;BME280;47013;42.664;23.242;2023-06-14T04:24:55;93770.31;;;16.28;100.00
61128;BME280;47013;42.664;23.242;2023-06-14T04:27:21;93768.28;;;16.19;100.00
61128;BME280;47013;42.664;23.242;2023-06-14T04:29:50;93772.78;;;16.35;100.00
61128;BME280;47013;42.664;23.242;2023-06-14T04:32:18;93770.69;;;16.39;100.00
61128;BME280;47013;42.664;23.242;2023-06-14T04:34:43;93771.97;;;16.47;100.00
61128;BME280;47013;42.664;23.242;2023-06-14T04:37:09;93784.56;;;16.44;100.00
61128;BME280;47013;42.664;23.242;2023-06-14T04:39:34;93780.03;;;16.50;100.00
61128;BME280;47013;42.664;23.242;2023-06-14T04:42:00;93771.72;;;16.54;100.00
61128;BME280;47013;42.664;23.242;2023-06-14T04:44:25;93771.13;;;16.59;100.00
61128;BME280;47013;42.664;23.242;2023-06-14T04:46:55;93764.13;;;16.58;100.00
61128;BME280;47013;42.664;23.242;2023-06-14T04:49:21;93773.09;;;16.59;100.00
61128;BME280;47013;42.664;23.242;2023-06-14T04:51:48;93769.31;;;16.65;100.00
61128;BME280;47013;42.664;23.242;2023-06-14T04:54:16;93769.84;;;16.73;100.00
61128;BME280;47013;42.664;23.242;2023-06-14T04:56:41;93778.28;;;16.66;100.00
61128;BME280;47013;42.664;23.242;2023-06-14T04:59:07;93783.72;;;16.78;100.00
61128;BME280;47013;42.664;23.242;2023-06-14T05:01:33;93786.44;;;16.78;100.00
61128;BME280;47013;42.664;23.242;2023-06-14T05:03:59;93781.25;;;16.71;100.00
61128;BME280;47013;42.664;23.242;2023-06-14T05:06:24;93781.41;;;16.68;100.00
61128;BME280;47013;42.664;23.242;2023-06-14T05:08:50;93790.28;;;16.81;100.00
61128;BME280;47013;42.664;23.242;2023-06-14T05:11:15;93789.00;;;16.73;100.00
61128;BME280;47013;42.664;23.242;2023-06-14T05:13:42;93792.88;;;16.85;100.00
61128;BME280;47013;42.664;23.242;2023-06-14T05:16:07;93793.69;;;16.94;100.00
61128;BME280;47013;42.664;23.242;2023-06-14T05:18:32;93797.66;;;17.02;100.00
61128;BME280;47013;42.664;23.242;2023-06-14T05:21:00;93797.56;;;17.06;100.00
61128;BME280;47013;42.664;23.242;2023-06-14T05:23:26;93799.97;;;17.04;100.00
61128;BME280;47013;42.664;23.242;2023-06-14T05:25:51;93810.50;;;17.15;100.00
61128;BME280;47013;42.664;23.242;2023-06-14T05:28:16;93818.78;;;17.24;100.00
61128;BME280;47013;42.664;23.242;2023-06-14T05:30:42;93823.19;;;17.21;100.00
61128;BME280;47013;42.664;23.242;2023-06-14T05:33:07;93821.22;;;17.31;100.00
61128;BME280;47013;42.664;23.242;2023-06-14T05:35:32;93819.91;;;17.45;100.00
61128;BME280;47013;42.664;23.242;2023-06-14T05:37:57;93819.47;;;17.55;100.00
61128;BME280;47013;42.664;23.242;2023-06-14T05:40:23;93821.25;;;17.71;100.00
61128;BME280;47013;42.664;23.242;2023-06-14T05:42:48;93814.94;;;17.61;100.00
61128;BME280;47013;42.664;23.242;2023-06-14T05:45:13;93819.34;;;17.59;100.00
61128;BME280;47013;42.664;23.242;2023-06-14T05:47:40;93823.66;;;17.69;100.00
61128;BME280;47013;42.664;23.242;2023-06-14T05:50:06;93833.06;;;17.68;100.00
61128;BME280;47013;42.664;23.242;2023-06-14T05:52:32;93828.56;;;17.74;100.00
61128;BME280;47013;42.664;23.242;2023-06-14T05:54:57;93834.81;;;17.84;100.00
61128;BME280;47013;42.664;23.242;2023-06-14T05:57:22;93827.81;;;17.83;100.00
61128;BME280;47013;42.664;23.242;2023-06-14T05:59:47;93834.81;;;17.75;100.00
61128;BME280;47013;42.664;23.242;2023-06-14T06:02:13;93838.00;;;17.82;100.00
61128;BME280;47013;42.664;23.242;2023-06-14T06:04:38;93839.69;;;17.80;100.00
61128;BME280;47013;42.664;23.242;2023-06-14T06:07:03;93838.63;;;17.77;100.00
61128;BME280;47013;42.664;23.242;2023-06-14T06:09:29;93834.38;;;17.85;100.00
61128;BME280;47013;42.664;23.242;2023-06-14T06:11:54;93843.66;;;17.88;100.00
61128;BME280;47013;42.664;23.242;2023-06-14T06:14:19;93841.69;;;17.88;100.00
61128;BME280;47013;42.664;23.242;2023-06-14T06:16:45;93846.84;;;17.77;100.00
61128;BME280;47013;42.664;23.242;2023-06-14T06:19:10;93844.09;;;17.77;100.00
61128;BME280;47013;42.664;23.242;2023-06-14T06:21:35;93852.19;;;17.81;100.00
61128;BME280;47013;42.664;23.242;2023-06-14T06:24:01;93845.97;;;17.98;100.00
61128;BME280;47013;42.664;23.242;2023-06-14T06:26:28;93853.13;;;18.05;100.00
61128;BME280;47013;42.664;23.242;2023-06-14T06:28:53;93851.00;;;18.09;100.00
61128;BME280;47013;42.664;23.242;2023-06-14T06:31:19;93851.34;;;18.11;100.00
61128;BME280;47013;42.664;23.242;2023-06-14T06:33:45;93847.50;;;18.09;100.00
61128;BME280;47013;42.664;23.242;2023-06-14T06:36:10;93856.66;;;18.06;100.00
61128;BME280;47013;42.664;23.242;2023-06-14T06:38:35;93848.88;;;18.04;100.00
61128;BME280;47013;42.664;23.242;2023-06-14T06:41:01;93847.34;;;18.03;100.00
61128;BME280;47013;42.664;23.242;2023-06-14T06:43:26;93848.72;;;18.08;100.00
61128;BME280;47013;42.664;23.242;2023-06-14T06:45:51;93840.50;;;18.08;100.00
61128;BME280;47013;42.664;23.242;2023-06-14T06:48:17;93849.94;;;17.97;100.00
61128;BME280;47013;42.664;23.242;2023-06-14T06:50:42;93856.94;;;18.08;100.00
61128;BME280;47013;42.664;23.242;2023-06-14T06:53:07;93849.03;;;18.19;100.00
61128;BME280;47013;42.664;23.242;2023-06-14T06:55:32;93854.38;;;18.32;100.00
61128;BME280;47013;42.664;23.242;2023-06-14T06:57:58;93853.47;;;18.35;100.00
61128;BME280;47013;42.664;23.242;2023-06-14T07:00:24;93852.41;;;18.50;100.00
61128;BME280;47013;42.664;23.242;2023-06-14T07:02:50;93857.75;;;18.72;100.00
61128;BME280;47013;42.664;23.242;2023-06-14T07:05:16;93855.00;;;18.72;100.00
61128;BME280;47013;42.664;23.242;2023-06-14T07:07:41;93858.97;;;18.71;100.00
61128;BME280;47013;42.664;23.242;2023-06-14T07:10:06;93857.00;;;18.63;100.00
61128;BME280;47013;42.664;23.242;2023-06-14T07:12:32;93856.06;;;18.75;100.00
61128;BME280;47013;42.664;23.242;2023-06-14T07:14:59;93852.25;;;18.81;100.00
61128;BME280;47013;42.664;23.242;2023-06-14T07:17:24;93844.03;;;18.81;100.00
61128;BME280;47013;42.664;23.242;2023-06-14T07:19:49;93848.91;;;18.77;100.00
61128;BME280;47013;42.664;23.242;2023-06-14T07:22:16;93848.88;;;18.86;100.00
61128;BME280;47013;42.664;23.242;2023-06-14T07:24:41;93852.88;;;18.76;100.00
61128;BME280;47013;42.664;23.242;2023-06-14T07:27:07;93853.94;;;18.79;100.00
61128;BME280;47013;42.664;23.242;2023-06-14T07:29:32;93854.53;;;18.83;100.00
61128;BME280;47013;42.664;23.242;2023-06-14T07:31:58;93848.88;;;18.86;100.00
61128;BME280;47013;42.664;23.242;2023-06-14T07:34:23;93849.66;;;18.87;100.00
61128;BME280;47013;42.664;23.242;2023-06-14T07:36:48;93847.53;;;18.91;100.00
61128;BME280;47013;42.664;23.242;2023-06-14T07:39:13;93852.84;;;18.85;100.00
61128;BME280;47013;42.664;23.242;2023-06-14T07:41:39;93850.56;;;18.93;100.00
61128;BME280;47013;42.664;23.242;2023-06-14T07:44:04;93853.47;;;18.90;100.00
61128;BME280;47013;42.664;23.242;2023-06-14T07:46:30;93850.56;;;19.02;100.00
61128;BME280;47013;42.664;23.242;2023-06-14T07:48:55;93857.22;;;19.10;100.00
61128;BME280;47013;42.664;23.242;2023-06-14T07:51:20;93856.16;;;19.17;99.29
61128;BME280;47013;42.664;23.242;2023-06-14T07:53:47;93864.41;;;19.17;100.00
61128;BME280;47013;42.664;23.242;2023-06-14T07:56:13;93860.84;;;19.26;100.00
61128;BME280;47013;42.664;23.242;2023-06-14T07:58:38;93864.63;;;19.37;100.00
61128;BME280;47013;42.664;23.242;2023-06-14T08:01:03;93862.94;;;19.40;99.16
61128;BME280;47013;42.664;23.242;2023-06-14T08:03:31;93868.69;;;19.51;99.47
61128;BME280;47013;42.664;23.242;2023-06-14T08:05:57;93872.88;;;19.37;97.48
61128;BME280;47013;42.664;23.242;2023-06-14T08:08:22;93878.88;;;19.27;100.00
61128;BME280;47013;42.664;23.242;2023-06-14T08:10:47;93881.41;;;19.49;100.00
61128;BME280;47013;42.664;23.242;2023-06-14T08:13:13;93886.28;;;19.54;96.09
61128;BME280;47013;42.664;23.242;2023-06-14T08:15:38;93882.91;;;19.50;96.15
61128;BME280;47013;42.664;23.242;2023-06-14T08:18:03;93886.44;;;19.59;96.81
61128;BME280;47013;42.664;23.242;2023-06-14T08:20:29;93882.75;;;19.62;96.07
61128;BME280;47013;42.664;23.242;2023-06-14T08:22:55;93885.75;;;19.73;93.65
61128;BME280;47013;42.664;23.242;2023-06-14T08:25:21;93886.38;;;20.01;93.47
61128;BME280;47013;42.664;23.242;2023-06-14T08:27:47;93886.84;;;20.00;93.11
61128;BME280;47013;42.664;23.242;2023-06-14T08:30:12;93885.75;;;20.07;93.55
61128;BME280;47013;42.664;23.242;2023-06-14T08:32:37;93886.56;;;20.22;93.40
61128;BME280;47013;42.664;23.242;2023-06-14T08:35:03;93881.47;;;20.29;93.23
61128;BME280;47013;42.664;23.242;2023-06-14T08:37:29;93884.06;;;20.33;91.70
61128;BME280;47013;42.664;23.242;2023-06-14T08:39:55;93885.88;;;20.36;91.24
61128;BME280;47013;42.664;23.242;2023-06-14T08:42:21;93888.34;;;20.34;88.14
61128;BME280;47013;42.664;23.242;2023-06-14T08:44:49;93883.13;;;20.60;88.99
61128;BME280;47013;42.664;23.242;2023-06-14T08:47:14;93874.56;;;20.97;91.57
61128;BME280;47013;42.664;23.242;2023-06-14T08:49:40;93867.81;;;20.98;89.41
61128;BME280;47013;42.664;23.242;2023-06-14T08:52:10;93875.78;;;21.10;88.10
61128;BME280;47013;42.664;23.242;2023-06-14T08:54:37;93874.00;;;21.37;89.06
61128;BME280;47013;42.664;23.242;2023-06-14T08:57:09;93875.25;;;21.51;84.11
61128;BME280;47013;42.664;23.242;2023-06-14T08:59:37;93881.28;;;21.69;83.32
61128;BME280;47013;42.664;23.242;2023-06-14T09:02:08;93876.91;;;21.77;85.25
61128;BME280;47013;42.664;23.242;2023-06-14T09:04:38;93874.75;;;22.02;82.96
61128;BME280;47013;42.664;23.242;2023-06-14T09:07:04;93867.16;;;22.32;83.05
61128;BME280;47013;42.664;23.242;2023-06-14T09:09:31;93868.66;;;22.53;82.57
61128;BME280;47013;42.664;23.242;2023-06-14T09:11:56;93871.66;;;22.76;78.62
61128;BME280;47013;42.664;23.242;2023-06-14T09:14:23;93865.81;;;22.88;80.31
61128;BME280;47013;42.664;23.242;2023-06-14T09:16:52;93856.00;;;23.13;80.54
61128;BME280;47013;42.664;23.242;2023-06-14T09:19:23;93869.28;;;23.35;75.89
61128;BME280;47013;42.664;23.242;2023-06-14T09:21:49;93862.34;;;23.45;75.75
61128;BME280;47013;42.664;23.242;2023-06-14T09:24:14;93863.09;;;23.46;76.22
61128;BME280;47013;42.664;23.242;2023-06-14T09:26:40;93861.88;;;23.21;75.59
61128;BME280;47013;42.664;23.242;2023-06-14T09:29:06;93858.94;;;23.04;75.22
61128;BME280;47013;42.664;23.242;2023-06-14T09:31:31;93859.31;;;22.91;76.29
61128;BME280;47013;42.664;23.242;2023-06-14T09:33:57;93863.03;;;22.88;77.72
61128;BME280;47013;42.664;23.242;2023-06-14T09:36:24;93861.94;;;22.80;77.70
61128;BME280;47013;42.664;23.242;2023-06-14T09:38:57;93869.22;;;22.57;77.06
61128;BME280;47013;42.664;23.242;2023-06-14T09:41:36;93863.25;;;22.64;77.19
61128;BME280;47013;42.664;23.242;2023-06-14T09:44:02;93861.31;;;22.71;77.46
61128;BME280;47013;42.664;23.242;2023-06-14T09:46:28;93851.28;;;22.73;77.59
61128;BME280;47013;42.664;23.242;2023-06-14T09:48:55;93857.38;;;22.77;76.90
61128;BME280;47013;42.664;23.242;2023-06-14T09:51:21;93847.44;;;22.65;77.89
61128;BME280;47013;42.664;23.242;2023-06-14T09:53:48;93848.97;;;22.46;77.92
61128;BME280;47013;42.664;23.242;2023-06-14T09:56:15;93850.97;;;22.25;78.25
61128;BME280;47013;42.664;23.242;2023-06-14T09:58:45;93845.81;;;21.97;79.31
61128;BME280;47013;42.664;23.242;2023-06-14T10:01:11;93843.06;;;21.97;79.27
61128;BME280;47013;42.664;23.242;2023-06-14T10:03:38;93843.09;;;21.83;78.96
61128;BME280;47013;42.664;23.242;2023-06-14T10:06:04;93841.38;;;21.85;80.60
61128;BME280;47013;42.664;23.242;2023-06-14T10:08:30;93836.94;;;22.08;81.43
61128;BME280;47013;42.664;23.242;2023-06-14T10:10:58;93835.44;;;22.48;78.38
61128;BME280;47013;42.664;23.242;2023-06-14T10:13:23;93832.41;;;22.46;78.10
61128;BME280;47013;42.664;23.242;2023-06-14T10:15:52;93829.13;;;22.67;77.79
61128;BME280;47013;42.664;23.242;2023-06-14T10:21:22;93827.31;;;23.11;72.88
61128;BME280;47013;42.664;23.242;2023-06-14T10:23:52;93833.88;;;23.13;75.08
61128;BME280;47013;42.664;23.242;2023-06-14T10:26:26;93823.63;;;23.19;74.53
61128;BME280;47013;42.664;23.242;2023-06-14T10:29:07;93821.41;;;23.23;73.31
61128;BME280;47013;42.664;23.242;2023-06-14T10:34:07;93815.72;;;23.07;73.72
61128;BME280;47013;42.664;23.242;2023-06-14T10:36:32;93819.50;;;23.35;72.97
61128;BME280;47013;42.664;23.242;2023-06-14T10:41:37;93813.94;;;23.61;72.22
61128;BME280;47013;42.664;23.242;2023-06-14T10:46:37;93819.59;;;23.46;69.80
61128;BME280;47013;42.664;23.242;2023-06-14T10:49:03;93813.00;;;23.75;71.40
61128;BME280;47013;42.664;23.242;2023-06-14T10:51:38;93817.66;;;23.95;70.92
61128;BME280;47013;42.664;23.242;2023-06-14T10:54:11;93802.16;;;24.20;68.52
61128;BME280;47013;42.664;23.242;2023-06-14T10:56:37;93808.34;;;24.47;67.84
61128;BME280;47013;42.664;23.242;2023-06-14T10:59:02;93801.09;;;24.60;66.66
61128;BME280;47013;42.664;23.242;2023-06-14T11:01:38;93797.28;;;24.52;66.26
61128;BME280;47013;42.664;23.242;2023-06-14T11:04:10;93796.53;;;24.52;65.31
61128;BME280;47013;42.664;23.242;2023-06-14T11:06:49;93780.97;;;24.77;63.80
61128;BME280;47013;42.664;23.242;2023-06-14T11:11:53;93775.59;;;24.39;64.83
61128;BME280;47013;42.664;23.242;2023-06-14T11:14:19;93772.38;;;24.69;65.63
61128;BME280;47013;42.664;23.242;2023-06-14T11:16:47;93762.84;;;24.92;63.75
61128;BME280;47013;42.664;23.242;2023-06-14T11:19:13;93775.25;;;25.03;63.07
61128;BME280;47013;42.664;23.242;2023-06-14T11:21:39;93770.91;;;24.90;62.10
61128;BME280;47013;42.664;23.242;2023-06-14T11:24:09;93771.91;;;24.93;61.41
61128;BME280;47013;42.664;23.242;2023-06-14T11:26:37;93769.34;;;24.73;61.28
61128;BME280;47013;42.664;23.242;2023-06-14T11:29:08;93777.84;;;24.41;62.95
61128;BME280;47013;42.664;23.242;2023-06-14T11:31:34;93779.38;;;24.48;64.08
61128;BME280;47013;42.664;23.242;2023-06-14T11:33:59;93771.47;;;24.29;63.46
61128;BME280;47013;42.664;23.242;2023-06-14T11:36:28;93765.47;;;24.31;65.14
61128;BME280;47013;42.664;23.242;2023-06-14T11:39:03;93763.38;;;24.20;64.54
61128;BME280;47013;42.664;23.242;2023-06-14T11:41:37;93763.88;;;24.19;64.51
61128;BME280;47013;42.664;23.242;2023-06-14T11:44:03;93754.44;;;24.42;63.01
61128;BME280;47013;42.664;23.242;2023-06-14T11:46:29;93754.97;;;24.57;63.24
61128;BME280;47013;42.664;23.242;2023-06-14T11:48:54;93750.72;;;24.84;64.75
61128;BME280;47013;42.664;23.242;2023-06-14T11:51:19;93743.22;;;25.07;60.69
61128;BME280;47013;42.664;23.242;2023-06-14T11:53:45;93749.97;;;24.95;61.49
61128;BME280;47013;42.664;23.242;2023-06-14T11:56:11;93741.66;;;24.84;59.61
61128;BME280;47013;42.664;23.242;2023-06-14T11:58:36;93739.94;;;25.03;61.26
61128;BME280;47013;42.664;23.242;2023-06-14T12:01:03;93735.41;;;25.28;59.45
61128;BME280;47013;42.664;23.242;2023-06-14T12:03:28;93738.41;;;25.30;58.04
61128;BME280;47013;42.664;23.242;2023-06-14T12:06:09;93729.84;;;25.28;58.51
61128;BME280;47013;42.664;23.242;2023-06-14T12:08:35;93714.19;;;25.42;58.23
61128;BME280;47013;42.664;23.242;2023-06-14T12:11:04;93719.72;;;25.36;58.49
61128;BME280;47013;42.664;23.242;2023-06-14T12:13:29;93715.41;;;25.52;57.12
61128;BME280;47013;42.664;23.242;2023-06-14T12:15:58;93720.94;;;25.74;56.29
61128;BME280;47013;42.664;23.242;2023-06-14T12:18:36;93712.63;;;25.80;54.42
61128;BME280;47013;42.664;23.242;2023-06-14T12:21:03;93712.03;;;25.98;55.07
61128;BME280;47013;42.664;23.242;2023-06-14T12:26:16;93715.97;;;26.25;54.39
61128;BME280;47013;42.664;23.242;2023-06-14T12:28:43;93714.84;;;25.93;52.01
61128;BME280;47013;42.664;23.242;2023-06-14T12:31:11;93715.81;;;26.01;54.80
61128;BME280;47013;42.664;23.242;2023-06-14T12:33:37;93712.31;;;25.95;52.89
61128;BME280;47013;42.664;23.242;2023-06-14T12:36:03;93706.25;;;25.91;54.43
61128;BME280;47013;42.664;23.242;2023-06-14T12:38:28;93694.38;;;25.90;53.45
61128;BME280;47013;42.664;23.242;2023-06-14T12:40:54;93701.19;;;25.89;55.35
61128;BME280;47013;42.664;23.242;2023-06-14T12:43:22;93696.88;;;25.99;52.58
61128;BME280;47013;42.664;23.242;2023-06-14T12:45:50;93701.44;;;25.91;53.73
61128;BME280;47013;42.664;23.242;2023-06-14T12:48:15;93697.31;;;26.14;53.10
61128;BME280;47013;42.664;23.242;2023-06-14T12:50:41;93677.03;;;26.31;54.12
61128;BME280;47013;42.664;23.242;2023-06-14T12:53:06;93684.91;;;26.21;55.09
61128;BME280;47013;42.664;23.242;2023-06-14T12:55:32;93682.22;;;25.99;54.31
61128;BME280;47013;42.664;23.242;2023-06-14T12:57:57;93679.50;;;25.87;56.10